Main page
METAR-TAF:

METAR-TAF

Airports :

Van Ferit Melen Airport

Van, Turkey

latitude: 38-27N, longitude: 043-19E, elevation: 1667 m

Current weather observation

The report was made 1 hour and 10 minutes ago, at 06:50 UTC
Wind 6 kt from the West
Temperature 15°C
Humidity 67%
Pressure 1018 hPa
Visibility 10 km or more
Few clouds at a height of 2500 ft, Towering cumulus.
Scattered clouds at a height of 4000 ft

METAR: LTCI 220650Z 26006KT 9999 FEW025TCU SCT040 15/09 Q1018 NOSIG

Time: 11:00 (08:00 UTC)

Forecast

The report was made 3 hours and 20 minutes ago, at 04:40 UTC
Forecast valid from 22 at 06 UTC to 22 at 15 UTC
Wind 7 kt from the West/Northwest
Visibility 10 km or more
Scattered clouds at a height of 4000 ft
Probability 30% :
Temporary
from 22 at 09 UTC to 22 at 13 UTC
Few clouds at a height of 2000 ft, Cumulonimbus.
Broken clouds at a height of 3000 ft
thunderstorm, light rain,

TAF: LTCI 220440Z 2206/2215 30007KT 9999 SCT040 PROB30 TEMPO 2209/2213 -TSRA FEW020CB BKN030

Weather observations and forecasts of more than 4000 airports (METAR and TAF reports).

The available stations are represented by yellow and red dots on the map.

Hover mouse over dot to see the name of the station.

Then click to see weather observations and forecasts.

To change the map : click on the green buttons with a black cross to zoom in, on the green button with a dash to zoom out, or on the green arrows for adjacent maps.


METAR-TAF: